PWSweather.com
Personal Weather Stations
Station Observations
ISYDDANM23
Felsted, AabenraaDK 6200

FelstedAabenraaDK 6200

Lat: 54.977066, Lon: 9.507192

Elevation: 135

Station Type: Davis Vantage Pro 2 Plus 24H

http://www.valkaer.dk

High Low Average
Temperature 66.4°F19.1°C 42.3°F5.7°C 55.1°F12.8°C
Dew Point 50.8°F10.4°C 40.1°F4.5°C 45.7°F7.6°C
Winds 17.3 mph 27.8 kmh Calm Calm 6.0 mph SW9.7 kmh SW
Wind Gusts 26.5 mph42.6 kmh -- 9.0 mph14.5 kmh
Humidity 94% 51% 73%
Pressure 30.04 in1017.3 mb 29.93 in1013.5 mb -
Precipitation 0.00 in0.0 mm - -
Hour Temp Dew Point Humidity Winds Wind Gusts Pressure Precip Precip Rate Daily Precip Total
12:00 AM 46.4°F8.0°C 43.3°F6.3°C 89% Calm Calm 1.2 mph1.9 kmh 30.04 in1017.3 mb - 0.00 in0.0 mm 0.00 in0.0 mm
12:10 AM 46.3°F7.9°C 43.2°F6.2°C 89% 1.2 mph WSW1.9 kmh WSW 2.3 mph3.7 kmh 30.04 in1017.3 mb - 0.00 in0.0 mm 0.00 in0.0 mm
12:15 AM 45.8°F7.7°C 42.7°F5.9°C 89% 1.2 mph WSW1.9 kmh WSW 1.2 mph1.9 kmh 30.04 in1017.3 mb - 0.00 in0.0 mm 0.00 in0.0 mm
12:20 AM 45.6°F7.6°C 42.8°F6.0°C 90% Calm Calm 1.2 mph1.9 kmh 30.04 in1017.3 mb - 0.00 in0.0 mm 0.00 in0.0 mm
12:25 AM 45.2°F7.3°C 42.5°F5.8°C 90% Calm Calm -- 30.04 in1017.3 mb - 0.00 in0.0 mm 0.00 in0.0 mm
12:30 AM 45.1°F7.3°C 42.6°F5.9°C 91% Calm Calm -- 30.04 in1017.3 mb - 0.00 in0.0 mm 0.00 in0.0 mm
12:35 AM 45.5°F7.5°C 43.0°F6.1°C 91% Calm Calm 1.2 mph1.9 kmh 30.04 in1017.3 mb - 0.00 in0.0 mm 0.00 in0.0 mm
12:40 AM 45.6°F7.6°C 43.1°F6.2°C 91% Calm Calm 1.2 mph1.9 kmh 30.04 in1017.3 mb - 0.00 in0.0 mm 0.00 in0.0 mm
12:45 AM 45.8°F7.7°C 43.3°F6.3°C 91% Calm Calm -- 30.04 in1017.3 mb - 0.00 in0.0 mm 0.00 in0.0 mm
12:50 AM 45.9°F7.7°C 43.4°F6.3°C 91% Calm Calm 1.2 mph1.9 kmh 30.04 in1017.3 mb - 0.00 in0.0 mm 0.00 in0.0 mm
12:55 AM 45.9°F7.7°C 43.4°F6.3°C 91% Calm Calm -- 30.04 in1017.3 mb - 0.00 in0.0 mm 0.00 in0.0 mm
01:00 AM 45.8°F7.7°C 43.0°F6.1°C 90% Calm Calm -- 30.04 in1017.3 mb - 0.00 in0.0 mm 0.00 in0.0 mm
01:10 AM 45.2°F7.3°C 42.4°F5.8°C 90% Calm Calm -- 30.04 in1017.3 mb - 0.00 in0.0 mm 0.00 in0.0 mm
01:15 AM 45.1°F7.3°C 42.6°F5.9°C 91% Calm Calm 1.2 mph1.9 kmh 30.04 in1017.3 mb - 0.00 in0.0 mm 0.00 in0.0 mm
01:20 AM 44.8°F7.1°C 42.3°F5.7°C 91% 1.2 mph WSW1.9 kmh WSW 2.3 mph3.7 kmh 30.04 in1017.3 mb - 0.00 in0.0 mm 0.00 in0.0 mm
01:25 AM 44.8°F7.1°C 42.3°F5.7°C 91% 1.2 mph WSW1.9 kmh WSW 2.3 mph3.7 kmh 30.04 in1017.3 mb - 0.00 in0.0 mm 0.00 in0.0 mm
01:30 AM 44.8°F7.1°C 42.3°F5.7°C 91% Calm Calm 1.2 mph1.9 kmh 30.04 in1017.3 mb - 0.00 in0.0 mm 0.00 in0.0 mm
01:35 AM 44.9°F7.2°C 42.7°F5.9°C 92% Calm Calm 1.2 mph1.9 kmh 30.03 in1016.9 mb - 0.00 in0.0 mm 0.00 in0.0 mm
01:40 AM 44.9°F7.2°C 42.7°F5.9°C 92% 1.2 mph WSW1.9 kmh WSW 1.2 mph1.9 kmh 30.03 in1016.9 mb - 0.00 in0.0 mm 0.00 in0.0 mm
01:45 AM 44.8°F7.1°C 42.4°F5.8°C 91% 1.2 mph WSW1.9 kmh WSW 1.2 mph1.9 kmh 30.04 in1017.3 mb - 0.00 in0.0 mm 0.00 in0.0 mm
01:50 AM 44.8°F7.1°C 42.6°F5.9°C 92% Calm Calm 1.2 mph1.9 kmh 30.04 in1017.3 mb - 0.00 in0.0 mm 0.00 in0.0 mm
01:55 AM 44.7°F7.1°C 42.6°F5.9°C 92% 1.2 mph WSW1.9 kmh WSW 1.2 mph1.9 kmh 30.04 in1017.3 mb - 0.00 in0.0 mm 0.00 in0.0 mm
02:00 AM 44.7°F7.1°C 42.5°F5.8°C 92% 1.2 mph WSW1.9 kmh WSW 1.2 mph1.9 kmh 30.04 in1017.3 mb - 0.00 in0.0 mm 0.00 in0.0 mm
02:10 AM 43.8°F6.6°C 41.3°F5.2°C 91% 1.2 mph WSW1.9 kmh WSW 1.2 mph1.9 kmh 30.04 in1017.3 mb - 0.00 in0.0 mm 0.00 in0.0 mm
02:15 AM 43.9°F6.6°C 41.7°F5.4°C 92% Calm Calm -- 30.04 in1017.3 mb - 0.00 in0.0 mm 0.00 in0.0 mm
02:20 AM 43.8°F6.6°C 41.6°F5.3°C 92% 1.2 mph WSW1.9 kmh WSW 1.2 mph1.9 kmh 30.04 in1017.3 mb - 0.00 in0.0 mm 0.00 in0.0 mm
02:25 AM 43.6°F6.4°C 41.4°F5.2°C 92% 1.2 mph S1.9 kmh S 2.3 mph3.7 kmh 30.03 in1016.9 mb - 0.00 in0.0 mm 0.00 in0.0 mm
02:30 AM 43.6°F6.4°C 41.4°F5.2°C 92% 1.2 mph S1.9 kmh S 2.3 mph3.7 kmh 30.03 in1016.9 mb - 0.00 in0.0 mm 0.00 in0.0 mm
02:35 AM 43.7°F6.5°C 41.5°F5.3°C 92% 1.2 mph S1.9 kmh S 2.3 mph3.7 kmh 30.03 in1016.9 mb - 0.00 in0.0 mm 0.00 in0.0 mm
02:40 AM 43.6°F6.4°C 41.4°F5.2°C 92% Calm Calm -- 30.03 in1016.9 mb - 0.00 in0.0 mm 0.00 in0.0 mm
02:45 AM 43.3°F6.3°C 41.1°F5.1°C 92% Calm Calm 2.3 mph3.7 kmh 30.03 in1016.9 mb - 0.00 in0.0 mm 0.00 in0.0 mm
02:50 AM 42.9°F6.1°C 40.7°F4.8°C 92% 1.2 mph SSW1.9 kmh SSW 2.3 mph3.7 kmh 30.03 in1016.9 mb - 0.00 in0.0 mm 0.00 in0.0 mm
02:55 AM 42.6°F5.9°C 40.4°F4.7°C 92% 1.2 mph SSW1.9 kmh SSW 2.3 mph3.7 kmh 30.03 in1016.9 mb - 0.00 in0.0 mm 0.00 in0.0 mm
03:00 AM 42.6°F5.9°C 40.4°F4.7°C 92% 2.3 mph SSW3.7 kmh SSW 3.5 mph5.6 kmh 30.03 in1016.9 mb - 0.00 in0.0 mm 0.00 in0.0 mm
03:10 AM 42.6°F5.9°C 40.5°F4.7°C 92% 2.3 mph SSW3.7 kmh SSW 3.5 mph5.6 kmh 30.03 in1016.9 mb - 0.00 in0.0 mm 0.00 in0.0 mm
03:15 AM 42.7°F5.9°C 40.6°F4.8°C 92% 2.3 mph SSW3.7 kmh SSW 3.5 mph5.6 kmh 30.03 in1016.9 mb - 0.00 in0.0 mm 0.00 in0.0 mm
03:20 AM 42.7°F5.9°C 40.5°F4.7°C 92% 2.3 mph SSW3.7 kmh SSW 3.5 mph5.6 kmh 30.03 in1016.9 mb - 0.00 in0.0 mm 0.00 in0.0 mm
03:25 AM 42.5°F5.8°C 40.3°F4.6°C 92% 1.2 mph SSW1.9 kmh SSW 2.3 mph3.7 kmh 30.03 in1016.9 mb - 0.00 in0.0 mm 0.00 in0.0 mm
03:30 AM 42.4°F5.8°C 40.3°F4.6°C 92% 1.2 mph SW1.9 kmh SW 2.3 mph3.7 kmh 30.03 in1016.9 mb - 0.00 in0.0 mm 0.00 in0.0 mm
03:35 AM 42.4°F5.8°C 40.5°F4.7°C 93% 1.2 mph SW1.9 kmh SW 2.3 mph3.7 kmh 30.03 in1016.9 mb - 0.00 in0.0 mm 0.00 in0.0 mm
03:40 AM 42.3°F5.7°C 40.1°F4.5°C 92% 1.2 mph SW1.9 kmh SW 2.3 mph3.7 kmh 30.02 in1016.6 mb - 0.00 in0.0 mm 0.00 in0.0 mm
03:45 AM 42.5°F5.8°C 40.6°F4.8°C 93% 1.2 mph SW1.9 kmh SW 2.3 mph3.7 kmh 30.02 in1016.6 mb - 0.00 in0.0 mm 0.00 in0.0 mm
03:50 AM 42.7°F5.9°C 40.8°F4.9°C 93% Calm Calm -- 30.02 in1016.6 mb - 0.00 in0.0 mm 0.00 in0.0 mm
03:55 AM 42.6°F5.9°C 40.7°F4.8°C 93% Calm Calm -- 30.02 in1016.6 mb - 0.00 in0.0 mm 0.00 in0.0 mm
04:00 AM 43.1°F6.2°C 41.2°F5.1°C 93% Calm Calm -- 30.02 in1016.6 mb - 0.00 in0.0 mm 0.00 in0.0 mm
04:10 AM 43.1°F6.2°C 41.2°F5.1°C 93% 2.3 mph S3.7 kmh S 3.5 mph5.6 kmh 30.02 in1016.6 mb - 0.00 in0.0 mm 0.00 in0.0 mm
04:15 AM 43.1°F6.2°C 41.2°F5.1°C 93% 1.2 mph S1.9 kmh S 2.3 mph3.7 kmh 30.02 in1016.6 mb - 0.00 in0.0 mm 0.00 in0.0 mm
04:20 AM 42.9°F6.1°C 41.1°F5.1°C 93% 1.2 mph S1.9 kmh S 1.2 mph1.9 kmh 30.02 in1016.6 mb - 0.00 in0.0 mm 0.00 in0.0 mm
04:25 AM 42.9°F6.1°C 41.0°F5.0°C 93% 1.2 mph S1.9 kmh S 2.3 mph3.7 kmh 30.02 in1016.6 mb - 0.00 in0.0 mm 0.00 in0.0 mm
04:30 AM 42.9°F6.1°C 41.0°F5.0°C 93% 1.2 mph S1.9 kmh S 2.3 mph3.7 kmh 30.03 in1016.9 mb - 0.00 in0.0 mm 0.00 in0.0 mm
04:35 AM 42.8°F6.0°C 40.9°F4.9°C 93% 1.2 mph S1.9 kmh S 2.3 mph3.7 kmh 30.02 in1016.6 mb - 0.00 in0.0 mm 0.00 in0.0 mm
04:40 AM 42.8°F6.0°C 40.9°F4.9°C 93% 2.3 mph S3.7 kmh S 3.5 mph5.6 kmh 30.02 in1016.6 mb - 0.00 in0.0 mm 0.00 in0.0 mm
04:45 AM 42.8°F6.0°C 40.9°F4.9°C 93% 1.2 mph S1.9 kmh S 1.2 mph1.9 kmh 30.02 in1016.6 mb - 0.00 in0.0 mm 0.00 in0.0 mm
04:50 AM 42.6°F5.9°C 40.7°F4.8°C 93% 1.2 mph S1.9 kmh S 1.2 mph1.9 kmh 30.02 in1016.6 mb - 0.00 in0.0 mm 0.00 in0.0 mm
04:55 AM 42.7°F5.9°C 40.8°F4.9°C 93% 1.2 mph S1.9 kmh S 2.3 mph3.7 kmh 30.03 in1016.9 mb - 0.00 in0.0 mm 0.00 in0.0 mm
05:00 AM 42.8°F6.0°C 40.9°F4.9°C 93% 1.2 mph S1.9 kmh S 2.3 mph3.7 kmh 30.02 in1016.6 mb - 0.00 in0.0 mm 0.00 in0.0 mm
05:10 AM 42.7°F5.9°C 40.8°F4.9°C 93% 1.2 mph S1.9 kmh S 3.5 mph5.6 kmh 30.02 in1016.6 mb - 0.00 in0.0 mm 0.00 in0.0 mm
05:15 AM 42.9°F6.1°C 41.0°F5.0°C 93% 1.2 mph S1.9 kmh S 2.3 mph3.7 kmh 30.02 in1016.6 mb - 0.00 in0.0 mm 0.00 in0.0 mm
05:20 AM 42.9°F6.1°C 41.0°F5.0°C 93% 2.3 mph S3.7 kmh S 3.5 mph5.6 kmh 30.02 in1016.6 mb - 0.00 in0.0 mm 0.00 in0.0 mm
05:25 AM 43.1°F6.2°C 41.2°F5.1°C 93% 2.3 mph S3.7 kmh S 2.3 mph3.7 kmh 30.02 in1016.6 mb - 0.00 in0.0 mm 0.00 in0.0 mm
05:30 AM 43.4°F6.3°C 41.5°F5.3°C 93% 1.2 mph S1.9 kmh S 2.3 mph3.7 kmh 30.02 in1016.6 mb - 0.00 in0.0 mm 0.00 in0.0 mm
05:35 AM 43.8°F6.6°C 42.0°F5.6°C 93% 2.3 mph S3.7 kmh S 3.5 mph5.6 kmh 30.02 in1016.6 mb - 0.00 in0.0 mm 0.00 in0.0 mm
05:40 AM 44.2°F6.8°C 42.6°F5.9°C 94% 1.2 mph S1.9 kmh S 2.3 mph3.7 kmh 30.02 in1016.6 mb - 0.00 in0.0 mm 0.00 in0.0 mm
05:45 AM 44.6°F7.0°C 42.7°F5.9°C 93% 2.3 mph S3.7 kmh S 3.5 mph5.6 kmh 30.02 in1016.6 mb - 0.00 in0.0 mm 0.00 in0.0 mm
05:50 AM 44.9°F7.2°C 43.3°F6.3°C 94% 1.2 mph S1.9 kmh S 3.5 mph5.6 kmh 30.02 in1016.6 mb - 0.00 in0.0 mm 0.00 in0.0 mm
05:55 AM 45.6°F7.6°C 43.9°F6.6°C 94% 1.2 mph S1.9 kmh S 2.3 mph3.7 kmh 30.02 in1016.6 mb - 0.00 in0.0 mm 0.00 in0.0 mm
06:00 AM 46.0°F7.8°C 44.4°F6.9°C 94% 2.3 mph SSW3.7 kmh SSW 3.5 mph5.6 kmh 30.02 in1016.6 mb - 0.00 in0.0 mm 0.00 in0.0 mm
06:10 AM 47.1°F8.4°C 45.5°F7.5°C 94% 4.6 mph S7.4 kmh S 6.9 mph11.1 kmh 30.02 in1016.6 mb - 0.00 in0.0 mm 0.00 in0.0 mm
06:15 AM 47.4°F8.6°C 45.5°F7.5°C 93% 4.6 mph SSW7.4 kmh SSW 6.9 mph11.1 kmh 30.02 in1016.6 mb - 0.00 in0.0 mm 0.00 in0.0 mm
06:20 AM 47.7°F8.7°C 45.8°F7.7°C 93% 4.6 mph S7.4 kmh S 6.9 mph11.1 kmh 30.02 in1016.6 mb - 0.00 in0.0 mm 0.00 in0.0 mm
06:25 AM 48.3°F9.1°C 46.3°F7.9°C 93% 3.5 mph S5.6 kmh S 6.9 mph11.1 kmh 30.02 in1016.6 mb - 0.00 in0.0 mm 0.00 in0.0 mm
06:30 AM 48.6°F9.2°C 46.6°F8.1°C 93% 3.5 mph SSW5.6 kmh SSW 9.2 mph14.8 kmh 30.02 in1016.6 mb - 0.00 in0.0 mm 0.00 in0.0 mm
06:35 AM 48.9°F9.4°C 47.0°F8.3°C 93% 4.6 mph S7.4 kmh S 6.9 mph11.1 kmh 30.02 in1016.6 mb - 0.00 in0.0 mm 0.00 in0.0 mm
06:40 AM 49.4°F9.7°C 47.2°F8.4°C 92% 5.8 mph SSW9.3 kmh SSW 8.1 mph13.0 kmh 30.02 in1016.6 mb - 0.00 in0.0 mm 0.00 in0.0 mm
06:45 AM 49.9°F9.9°C 47.7°F8.7°C 92% 6.9 mph SSW11.1 kmh SSW 8.1 mph13.0 kmh 30.02 in1016.6 mb - 0.00 in0.0 mm 0.00 in0.0 mm
06:50 AM 50.4°F10.2°C 47.9°F8.8°C 91% 4.6 mph S7.4 kmh S 6.9 mph11.1 kmh 30.02 in1016.6 mb - 0.00 in0.0 mm 0.00 in0.0 mm
06:55 AM 50.9°F10.5°C 48.1°F8.9°C 90% 4.6 mph S7.4 kmh S 5.8 mph9.3 kmh 30.02 in1016.6 mb - 0.00 in0.0 mm 0.00 in0.0 mm
07:00 AM 51.2°F10.7°C 48.1°F8.9°C 89% 4.6 mph SSW7.4 kmh SSW 5.8 mph9.3 kmh 30.03 in1016.9 mb - 0.00 in0.0 mm 0.00 in0.0 mm
07:10 AM 51.9°F11.1°C 48.2°F9.0°C 87% 6.9 mph SSW11.1 kmh SSW 10.4 mph16.7 kmh 30.03 in1016.9 mb - 0.00 in0.0 mm 0.00 in0.0 mm
07:15 AM 52.4°F11.3°C 48.6°F9.2°C 87% 5.8 mph SSW9.3 kmh SSW 9.2 mph14.8 kmh 30.03 in1016.9 mb - 0.00 in0.0 mm 0.00 in0.0 mm
07:20 AM 53.1°F11.7°C 48.4°F9.1°C 84% 6.9 mph S11.1 kmh S 9.2 mph14.8 kmh 30.03 in1016.9 mb - 0.00 in0.0 mm 0.00 in0.0 mm
07:25 AM 53.3°F11.8°C 48.3°F9.1°C 83% 5.8 mph SSW9.3 kmh SSW 6.9 mph11.1 kmh 30.03 in1016.9 mb - 0.00 in0.0 mm 0.00 in0.0 mm
07:30 AM 53.8°F12.1°C 48.8°F9.3°C 83% 6.9 mph SSW11.1 kmh SSW 11.5 mph18.5 kmh 30.03 in1016.9 mb - 0.00 in0.0 mm 0.00 in0.0 mm
07:35 AM 54.0°F12.2°C 48.0°F8.9°C 80% 5.8 mph SSW9.3 kmh SSW 9.2 mph14.8 kmh 30.03 in1016.9 mb - 0.00 in0.0 mm 0.00 in0.0 mm
07:40 AM 54.1°F12.3°C 48.4°F9.1°C 81% 5.8 mph S9.3 kmh S 10.4 mph16.7 kmh 30.03 in1016.9 mb - 0.00 in0.0 mm 0.00 in0.0 mm
07:45 AM 54.5°F12.5°C 48.2°F9.0°C 79% 6.9 mph SSW11.1 kmh SSW 9.2 mph14.8 kmh 30.03 in1016.9 mb - 0.00 in0.0 mm 0.00 in0.0 mm
07:50 AM 54.9°F12.7°C 48.2°F9.0°C 78% 6.9 mph SSW11.1 kmh SSW 11.5 mph18.5 kmh 30.03 in1016.9 mb - 0.00 in0.0 mm 0.00 in0.0 mm
07:55 AM 55.4°F13.0°C 48.7°F9.3°C 78% 5.8 mph SW9.3 kmh SW 8.1 mph13.0 kmh 30.02 in1016.6 mb - 0.00 in0.0 mm 0.00 in0.0 mm
08:00 AM 55.4°F13.0°C 48.0°F8.9°C 76% 8.1 mph SW13.0 kmh SW 11.5 mph18.5 kmh 30.03 in1016.9 mb - 0.00 in0.0 mm 0.00 in0.0 mm
08:10 AM 55.9°F13.3°C 48.1°F8.9°C 75% 9.2 mph SSW14.8 kmh SSW 11.5 mph18.5 kmh 30.02 in1016.6 mb - 0.00 in0.0 mm 0.00 in0.0 mm
08:15 AM 56.1°F13.4°C 48.6°F9.2°C 76% 8.1 mph SSW13.0 kmh SSW 9.2 mph14.8 kmh 30.03 in1016.9 mb - 0.00 in0.0 mm 0.00 in0.0 mm
08:20 AM 56.4°F13.6°C 48.2°F9.0°C 74% 9.2 mph SSW14.8 kmh SSW 12.7 mph20.4 kmh 30.03 in1016.9 mb - 0.00 in0.0 mm 0.00 in0.0 mm
08:25 AM 56.8°F13.8°C 48.6°F9.2°C 74% 8.1 mph SSW13.0 kmh SSW 11.5 mph18.5 kmh 30.02 in1016.6 mb - 0.00 in0.0 mm 0.00 in0.0 mm
08:30 AM 57.2°F14.0°C 48.6°F9.2°C 73% 8.1 mph SW13.0 kmh SW 10.4 mph16.7 kmh 30.03 in1016.9 mb - 0.00 in0.0 mm 0.00 in0.0 mm
08:35 AM 57.7°F14.3°C 49.1°F9.5°C 73% 4.6 mph SW7.4 kmh SW 8.1 mph13.0 kmh 30.03 in1016.9 mb - 0.00 in0.0 mm 0.00 in0.0 mm
08:40 AM 58.2°F14.6°C 48.5°F9.2°C 70% 9.2 mph SW14.8 kmh SW 12.7 mph20.4 kmh 30.02 in1016.6 mb - 0.00 in0.0 mm 0.00 in0.0 mm
08:45 AM 58.0°F14.4°C 48.6°F9.2°C 71% 6.9 mph SW11.1 kmh SW 11.5 mph18.5 kmh 30.03 in1016.9 mb - 0.00 in0.0 mm 0.00 in0.0 mm
08:50 AM 58.5°F14.7°C 48.4°F9.1°C 69% 8.1 mph SW13.0 kmh SW 11.5 mph18.5 kmh 30.02 in1016.6 mb - 0.00 in0.0 mm 0.00 in0.0 mm
08:55 AM 58.8°F14.9°C 48.6°F9.2°C 69% 8.1 mph SSW13.0 kmh SSW 12.7 mph20.4 kmh 30.03 in1016.9 mb - 0.00 in0.0 mm 0.00 in0.0 mm
09:00 AM 58.5°F14.7°C 48.4°F9.1°C 69% 9.2 mph SW14.8 kmh SW 11.5 mph18.5 kmh 30.02 in1016.6 mb - 0.00 in0.0 mm 0.00 in0.0 mm
09:10 AM 59.1°F15.1°C 48.5°F9.2°C 68% 9.2 mph SW14.8 kmh SW 12.7 mph20.4 kmh 30.02 in1016.6 mb - 0.00 in0.0 mm 0.00 in0.0 mm
09:15 AM 59.1°F15.1°C 47.7°F8.7°C 66% 11.5 mph SW18.5 kmh SW 13.8 mph22.2 kmh 30.02 in1016.6 mb - 0.00 in0.0 mm 0.00 in0.0 mm
09:20 AM 59.8°F15.4°C 48.0°F8.9°C 65% 10.4 mph SW16.7 kmh SW 16.1 mph25.9 kmh 30.02 in1016.6 mb - 0.00 in0.0 mm 0.00 in0.0 mm
09:25 AM 59.6°F15.3°C 47.4°F8.6°C 64% 9.2 mph SW14.8 kmh SW 11.5 mph18.5 kmh 30.02 in1016.6 mb - 0.00 in0.0 mm 0.00 in0.0 mm
09:30 AM 60.2°F15.7°C 47.1°F8.4°C 62% 11.5 mph WSW18.5 kmh WSW 16.1 mph25.9 kmh 30.02 in1016.6 mb - 0.00 in0.0 mm 0.00 in0.0 mm
09:35 AM 60.5°F15.8°C 48.3°F9.1°C 64% 8.1 mph SW13.0 kmh SW 10.4 mph16.7 kmh 30.02 in1016.6 mb - 0.00 in0.0 mm 0.00 in0.0 mm
09:40 AM 61.1°F16.2°C 48.0°F8.9°C 62% 10.4 mph SSW16.7 kmh SSW 16.1 mph25.9 kmh 30.02 in1016.6 mb - 0.00 in0.0 mm 0.00 in0.0 mm
09:45 AM 60.8°F16.0°C 47.7°F8.7°C 62% 10.4 mph SW16.7 kmh SW 15.0 mph24.1 kmh 30.02 in1016.6 mb - 0.00 in0.0 mm 0.00 in0.0 mm
09:50 AM 61.0°F16.1°C 48.7°F9.3°C 64% 9.2 mph SW14.8 kmh SW 16.1 mph25.9 kmh 30.02 in1016.6 mb - 0.00 in0.0 mm 0.00 in0.0 mm
09:55 AM 61.3°F16.3°C 48.2°F9.0°C 62% 10.4 mph SW16.7 kmh SW 15.0 mph24.1 kmh 30.02 in1016.6 mb - 0.00 in0.0 mm 0.00 in0.0 mm
10:00 AM 61.7°F16.5°C 48.5°F9.2°C 62% 9.2 mph SW14.8 kmh SW 15.0 mph24.1 kmh 30.02 in1016.6 mb - 0.00 in0.0 mm 0.00 in0.0 mm
10:10 AM 62.3°F16.8°C 47.3°F8.5°C 58% 9.2 mph SW14.8 kmh SW 13.8 mph22.2 kmh 30.02 in1016.6 mb - 0.00 in0.0 mm 0.00 in0.0 mm
10:15 AM 62.3°F16.8°C 47.4°F8.6°C 58% 10.4 mph WSW16.7 kmh WSW 15.0 mph24.1 kmh 30.02 in1016.6 mb - 0.00 in0.0 mm 0.00 in0.0 mm
10:20 AM 62.7°F17.1°C 48.6°F9.2°C 60% 6.9 mph WSW11.1 kmh WSW 11.5 mph18.5 kmh 30.02 in1016.6 mb - 0.00 in0.0 mm 0.00 in0.0 mm
10:25 AM 63.0°F17.2°C 46.6°F8.1°C 55% 9.2 mph SW14.8 kmh SW 9.2 mph14.8 kmh 30.02 in1016.6 mb - 0.00 in0.0 mm 0.00 in0.0 mm
10:30 AM 63.0°F17.2°C 45.6°F7.6°C 53% 10.4 mph WSW16.7 kmh WSW 19.6 mph31.5 kmh 30.02 in1016.6 mb - 0.00 in0.0 mm 0.00 in0.0 mm
10:35 AM 63.2°F17.3°C 46.3°F7.9°C 54% 12.7 mph SW20.4 kmh SW 21.9 mph35.2 kmh 30.02 in1016.6 mb - 0.00 in0.0 mm 0.00 in0.0 mm
10:40 AM 63.5°F17.5°C 46.0°F7.8°C 53% 13.8 mph WSW22.2 kmh WSW 18.4 mph29.6 kmh 30.02 in1016.6 mb - 0.00 in0.0 mm 0.00 in0.0 mm
10:45 AM 63.9°F17.7°C 46.4°F8.0°C 53% 12.7 mph SW20.4 kmh SW 15.0 mph24.1 kmh 30.02 in1016.6 mb - 0.00 in0.0 mm 0.00 in0.0 mm
10:50 AM 63.8°F17.7°C 46.9°F8.3°C 54% 11.5 mph SW18.5 kmh SW 19.6 mph31.5 kmh 30.01 in1016.3 mb - 0.00 in0.0 mm 0.00 in0.0 mm
10:55 AM 63.4°F17.4°C 46.0°F7.8°C 53% 10.4 mph SW16.7 kmh SW 21.9 mph35.2 kmh 30.02 in1016.6 mb - 0.00 in0.0 mm 0.00 in0.0 mm
11:00 AM 64.0°F17.8°C 47.5°F8.6°C 55% 9.2 mph SW14.8 kmh SW 12.7 mph20.4 kmh 30.01 in1016.3 mb - 0.00 in0.0 mm 0.00 in0.0 mm
11:10 AM 62.8°F17.1°C 46.4°F8.0°C 55% 11.5 mph WSW18.5 kmh WSW 13.8 mph22.2 kmh 30.01 in1016.3 mb - 0.00 in0.0 mm 0.00 in0.0 mm
11:15 AM 64.2°F17.9°C 46.7°F8.2°C 53% 11.5 mph SW18.5 kmh SW 17.3 mph27.8 kmh 30.01 in1016.3 mb - 0.00 in0.0 mm 0.00 in0.0 mm
11:20 AM 64.0°F17.8°C 46.0°F7.8°C 52% 12.7 mph SW20.4 kmh SW 18.4 mph29.6 kmh 30.01 in1016.3 mb - 0.00 in0.0 mm 0.00 in0.0 mm
11:25 AM 63.8°F17.7°C 47.3°F8.5°C 55% 11.5 mph WSW18.5 kmh WSW 18.4 mph29.6 kmh 30.01 in1016.3 mb - 0.00 in0.0 mm 0.00 in0.0 mm
11:30 AM 64.3°F17.9°C 47.3°F8.5°C 54% 12.7 mph WSW20.4 kmh WSW 17.3 mph27.8 kmh 30.01 in1016.3 mb - 0.00 in0.0 mm 0.00 in0.0 mm
11:35 AM 64.4°F18.0°C 46.4°F8.0°C 52% 16.1 mph WSW25.9 kmh WSW 17.3 mph27.8 kmh 30.01 in1016.3 mb - 0.00 in0.0 mm 0.00 in0.0 mm
11:40 AM 63.8°F17.7°C 45.8°F7.7°C 52% 15.0 mph SW24.1 kmh SW 23.0 mph37.0 kmh 30.01 in1016.3 mb - 0.00 in0.0 mm 0.00 in0.0 mm
11:45 AM 63.7°F17.6°C 47.2°F8.4°C 55% 16.1 mph WSW25.9 kmh WSW 17.3 mph27.8 kmh 30.01 in1016.3 mb - 0.00 in0.0 mm 0.00 in0.0 mm
11:50 AM 63.8°F17.7°C 47.3°F8.5°C 55% 10.4 mph WSW16.7 kmh WSW 15.0 mph24.1 kmh 30.01 in1016.3 mb - 0.00 in0.0 mm 0.00 in0.0 mm
11:55 AM 63.4°F17.4°C 47.4°F8.6°C 56% 10.4 mph SW16.7 kmh SW 15.0 mph24.1 kmh 30.01 in1016.3 mb - 0.00 in0.0 mm 0.00 in0.0 mm
12:00 PM 63.1°F17.3°C 47.7°F8.7°C 57% 12.7 mph SW20.4 kmh SW 16.1 mph25.9 kmh 30.01 in1016.3 mb - 0.00 in0.0 mm 0.00 in0.0 mm
12:10 PM 64.6°F18.1°C 49.0°F9.4°C 57% 15.0 mph SW24.1 kmh SW 24.2 mph38.9 kmh 30.00 in1015.9 mb - 0.00 in0.0 mm 0.00 in0.0 mm
12:15 PM 64.6°F18.1°C 48.0°F8.9°C 55% 15.0 mph SW24.1 kmh SW 26.5 mph42.6 kmh 30.00 in1015.9 mb - 0.00 in0.0 mm 0.00 in0.0 mm
12:20 PM 64.5°F18.1°C 49.4°F9.7°C 58% 10.4 mph WSW16.7 kmh WSW 19.6 mph31.5 kmh 30.00 in1015.9 mb - 0.00 in0.0 mm 0.00 in0.0 mm
12:25 PM 64.4°F18.0°C 48.4°F9.1°C 56% 12.7 mph WSW20.4 kmh WSW 18.4 mph29.6 kmh 30.00 in1015.9 mb - 0.00 in0.0 mm 0.00 in0.0 mm
12:30 PM 65.5°F18.6°C 50.8°F10.4°C 59% 8.1 mph SW13.0 kmh SW 11.5 mph18.5 kmh 30.00 in1015.9 mb - 0.00 in0.0 mm 0.00 in0.0 mm
12:35 PM 65.1°F18.4°C 49.4°F9.7°C 57% 12.7 mph SW20.4 kmh SW 19.6 mph31.5 kmh 30.00 in1015.9 mb - 0.00 in0.0 mm 0.00 in0.0 mm
12:40 PM 65.2°F18.4°C 49.6°F9.8°C 57% 11.5 mph SW18.5 kmh SW 16.1 mph25.9 kmh 30.00 in1015.9 mb - 0.00 in0.0 mm 0.00 in0.0 mm
12:45 PM 65.7°F18.7°C 50.1°F10.1°C 57% 11.5 mph WSW18.5 kmh WSW 17.3 mph27.8 kmh 30.00 in1015.9 mb - 0.00 in0.0 mm 0.00 in0.0 mm
12:50 PM 65.5°F18.6°C 49.9°F9.9°C 57% 12.7 mph WSW20.4 kmh WSW 13.8 mph22.2 kmh 30.00 in1015.9 mb - 0.00 in0.0 mm 0.00 in0.0 mm
12:55 PM 65.4°F18.6°C 49.2°F9.6°C 56% 13.8 mph WSW22.2 kmh WSW 19.6 mph31.5 kmh 30.00 in1015.9 mb - 0.00 in0.0 mm 0.00 in0.0 mm
01:00 PM 65.9°F18.8°C 50.7°F10.4°C 58% 11.5 mph WSW18.5 kmh WSW 17.3 mph27.8 kmh 30.00 in1015.9 mb - 0.00 in0.0 mm 0.00 in0.0 mm
01:10 PM 65.2°F18.4°C 49.1°F9.5°C 56% 11.5 mph SW18.5 kmh SW 13.8 mph22.2 kmh 29.99 in1015.6 mb - 0.00 in0.0 mm 0.00 in0.0 mm
01:15 PM 65.4°F18.6°C 48.8°F9.3°C 55% 12.7 mph SW20.4 kmh SW 20.7 mph33.3 kmh 29.99 in1015.6 mb - 0.00 in0.0 mm 0.00 in0.0 mm
01:20 PM 65.5°F18.6°C 49.4°F9.7°C 56% 11.5 mph SW18.5 kmh SW 16.1 mph25.9 kmh 29.99 in1015.6 mb - 0.00 in0.0 mm 0.00 in0.0 mm
01:25 PM 65.5°F18.6°C 48.9°F9.4°C 55% 15.0 mph WSW24.1 kmh WSW 19.6 mph31.5 kmh 29.99 in1015.6 mb - 0.00 in0.0 mm 0.00 in0.0 mm
01:30 PM 66.1°F18.9°C 49.4°F9.7°C 55% 13.8 mph SW22.2 kmh SW 16.1 mph25.9 kmh 29.99 in1015.6 mb - 0.00 in0.0 mm 0.00 in0.0 mm
01:35 PM 66.0°F18.9°C 49.4°F9.7°C 55% 15.0 mph WSW24.1 kmh WSW 19.6 mph31.5 kmh 29.99 in1015.6 mb - 0.00 in0.0 mm 0.00 in0.0 mm
01:40 PM 66.3°F19.1°C 50.1°F10.1°C 56% 11.5 mph SW18.5 kmh SW 17.3 mph27.8 kmh 29.99 in1015.6 mb - 0.00 in0.0 mm 0.00 in0.0 mm
01:45 PM 65.9°F18.8°C 48.8°F9.3°C 54% 12.7 mph WSW20.4 kmh WSW 20.7 mph33.3 kmh 29.99 in1015.6 mb - 0.00 in0.0 mm 0.00 in0.0 mm
01:50 PM 66.2°F19.0°C 50.5°F10.3°C 57% 8.1 mph WSW13.0 kmh WSW 12.7 mph20.4 kmh 29.99 in1015.6 mb - 0.00 in0.0 mm 0.00 in0.0 mm
01:55 PM 66.4°F19.1°C 49.2°F9.6°C 54% 12.7 mph WSW20.4 kmh WSW 23.0 mph37.0 kmh 29.99 in1015.6 mb - 0.00 in0.0 mm 0.00 in0.0 mm
02:00 PM 65.9°F18.8°C 48.3°F9.1°C 53% 15.0 mph WSW24.1 kmh WSW 23.0 mph37.0 kmh 29.99 in1015.6 mb - 0.00 in0.0 mm 0.00 in0.0 mm
02:10 PM 65.3°F18.5°C 47.7°F8.7°C 53% 15.0 mph WSW24.1 kmh WSW 19.6 mph31.5 kmh 29.99 in1015.6 mb - 0.00 in0.0 mm 0.00 in0.0 mm
02:15 PM 65.5°F18.6°C 47.9°F8.8°C 53% 16.1 mph WSW25.9 kmh WSW 18.4 mph29.6 kmh 29.99 in1015.6 mb - 0.00 in0.0 mm 0.00 in0.0 mm
02:20 PM 65.7°F18.7°C 48.1°F8.9°C 53% 15.0 mph WSW24.1 kmh WSW 19.6 mph31.5 kmh 29.98 in1015.2 mb - 0.00 in0.0 mm 0.00 in0.0 mm
02:25 PM 65.6°F18.7°C 49.0°F9.4°C 55% 12.7 mph WSW20.4 kmh WSW 18.4 mph29.6 kmh 29.98 in1015.2 mb - 0.00 in0.0 mm 0.00 in0.0 mm
02:30 PM 65.8°F18.8°C 48.7°F9.3°C 54% 13.8 mph WSW22.2 kmh WSW 19.6 mph31.5 kmh 29.98 in1015.2 mb - 0.00 in0.0 mm 0.00 in0.0 mm
02:35 PM 66.3°F19.1°C 49.6°F9.8°C 55% 12.7 mph WSW20.4 kmh WSW 16.1 mph25.9 kmh 29.98 in1015.2 mb - 0.00 in0.0 mm 0.00 in0.0 mm
02:40 PM 65.7°F18.7°C 48.1°F8.9°C 53% 13.8 mph WSW22.2 kmh WSW 19.6 mph31.5 kmh 29.98 in1015.2 mb - 0.00 in0.0 mm 0.00 in0.0 mm
02:45 PM 65.8°F18.8°C 49.2°F9.6°C 55% 10.4 mph WSW16.7 kmh WSW 13.8 mph22.2 kmh 29.99 in1015.6 mb - 0.00 in0.0 mm 0.00 in0.0 mm
02:50 PM 66.1°F18.9°C 47.9°F8.8°C 52% 16.1 mph WSW25.9 kmh WSW 21.9 mph35.2 kmh 29.98 in1015.2 mb - 0.00 in0.0 mm 0.00 in0.0 mm
02:55 PM 65.4°F18.6°C 47.8°F8.8°C 53% 15.0 mph WSW24.1 kmh WSW 18.4 mph29.6 kmh 29.99 in1015.6 mb - 0.00 in0.0 mm 0.00 in0.0 mm
03:00 PM 65.2°F18.4°C 48.2°F9.0°C 54% 15.0 mph WSW24.1 kmh WSW 23.0 mph37.0 kmh 29.98 in1015.2 mb - 0.00 in0.0 mm 0.00 in0.0 mm
03:10 PM 65.8°F18.8°C 48.6°F9.2°C 54% 12.7 mph WSW20.4 kmh WSW 19.6 mph31.5 kmh 29.98 in1015.2 mb - 0.00 in0.0 mm 0.00 in0.0 mm
03:15 PM 65.8°F18.8°C 48.2°F9.0°C 53% 12.7 mph WSW20.4 kmh WSW 17.3 mph27.8 kmh 29.98 in1015.2 mb - 0.00 in0.0 mm 0.00 in0.0 mm
03:20 PM 65.3°F18.5°C 48.3°F9.1°C 54% 11.5 mph WSW18.5 kmh WSW 17.3 mph27.8 kmh 29.98 in1015.2 mb - 0.00 in0.0 mm 0.00 in0.0 mm
03:25 PM 65.5°F18.6°C 48.9°F9.4°C 55% 12.7 mph WSW20.4 kmh WSW 15.0 mph24.1 kmh 29.98 in1015.2 mb - 0.00 in0.0 mm 0.00 in0.0 mm
03:30 PM 65.4°F18.6°C 47.3°F8.5°C 52% 15.0 mph WSW24.1 kmh WSW 23.0 mph37.0 kmh 29.98 in1015.2 mb - 0.00 in0.0 mm 0.00 in0.0 mm
03:35 PM 65.5°F18.6°C 48.4°F9.1°C 54% 10.4 mph SW16.7 kmh SW 12.7 mph20.4 kmh 29.98 in1015.2 mb - 0.00 in0.0 mm 0.00 in0.0 mm
03:40 PM 65.0°F18.3°C 47.9°F8.8°C 54% 16.1 mph WSW25.9 kmh WSW 20.7 mph33.3 kmh 29.98 in1015.2 mb - 0.00 in0.0 mm 0.00 in0.0 mm
03:45 PM 65.0°F18.3°C 48.5°F9.2°C 55% 15.0 mph WSW24.1 kmh WSW 16.1 mph25.9 kmh 29.98 in1015.2 mb - 0.00 in0.0 mm 0.00 in0.0 mm
03:50 PM 65.6°F18.7°C 48.5°F9.2°C 54% 13.8 mph WSW22.2 kmh WSW 24.2 mph38.9 kmh 29.98 in1015.2 mb - 0.00 in0.0 mm 0.00 in0.0 mm
03:55 PM 65.0°F18.3°C 47.5°F8.6°C 53% 17.3 mph WSW27.8 kmh WSW 21.9 mph35.2 kmh 29.98 in1015.2 mb - 0.00 in0.0 mm 0.00 in0.0 mm
04:00 PM 64.6°F18.1°C 48.1°F8.9°C 55% 12.7 mph SW20.4 kmh SW 15.0 mph24.1 kmh 29.98 in1015.2 mb - 0.00 in0.0 mm 0.00 in0.0 mm
04:10 PM 64.3°F17.9°C 47.8°F8.8°C 55% 12.7 mph SW20.4 kmh SW 18.4 mph29.6 kmh 29.97 in1014.9 mb - 0.00 in0.0 mm 0.00 in0.0 mm
04:15 PM 64.5°F18.1°C 48.0°F8.9°C 55% 15.0 mph WSW24.1 kmh WSW 19.6 mph31.5 kmh 29.98 in1015.2 mb - 0.00 in0.0 mm 0.00 in0.0 mm
04:20 PM 65.2°F18.4°C 48.1°F8.9°C 54% 12.7 mph SW20.4 kmh SW 12.7 mph20.4 kmh 29.97 in1014.9 mb - 0.00 in0.0 mm 0.00 in0.0 mm
04:25 PM 64.7°F18.2°C 47.2°F8.4°C 53% 13.8 mph WSW22.2 kmh WSW 21.9 mph35.2 kmh 29.97 in1014.9 mb - 0.00 in0.0 mm 0.00 in0.0 mm
04:30 PM 64.4°F18.0°C 47.9°F8.8°C 55% 13.8 mph WSW22.2 kmh WSW 19.6 mph31.5 kmh 29.97 in1014.9 mb - 0.00 in0.0 mm 0.00 in0.0 mm
04:35 PM 64.2°F17.9°C 47.2°F8.4°C 54% 11.5 mph SW18.5 kmh SW 15.0 mph24.1 kmh 29.97 in1014.9 mb - 0.00 in0.0 mm 0.00 in0.0 mm
04:40 PM 64.7°F18.2°C 47.6°F8.7°C 54% 12.7 mph WSW20.4 kmh WSW 17.3 mph27.8 kmh 29.97 in1014.9 mb - 0.00 in0.0 mm 0.00 in0.0 mm
04:45 PM 64.8°F18.2°C 47.7°F8.7°C 54% 11.5 mph WSW18.5 kmh WSW 13.8 mph22.2 kmh 29.96 in1014.6 mb - 0.00 in0.0 mm 0.00 in0.0 mm
04:50 PM 64.5°F18.1°C 46.5°F8.1°C 52% 15.0 mph SW24.1 kmh SW 19.6 mph31.5 kmh 29.96 in1014.6 mb - 0.00 in0.0 mm 0.00 in0.0 mm
04:55 PM 64.3°F17.9°C 46.3°F7.9°C 52% 13.8 mph SW22.2 kmh SW 19.6 mph31.5 kmh 29.96 in1014.6 mb - 0.00 in0.0 mm 0.00 in0.0 mm
05:00 PM 63.9°F17.7°C 46.5°F8.1°C 53% 11.5 mph WSW18.5 kmh WSW 20.7 mph33.3 kmh 29.96 in1014.6 mb - 0.00 in0.0 mm 0.00 in0.0 mm
05:10 PM 64.4°F18.0°C 46.4°F8.0°C 52% 12.7 mph SW20.4 kmh SW 17.3 mph27.8 kmh 29.96 in1014.6 mb - 0.00 in0.0 mm 0.00 in0.0 mm
05:15 PM 64.2°F17.9°C 46.7°F8.2°C 53% 13.8 mph WSW22.2 kmh WSW 18.4 mph29.6 kmh 29.96 in1014.6 mb - 0.00 in0.0 mm 0.00 in0.0 mm
05:20 PM 64.1°F17.8°C 46.6°F8.1°C 53% 10.4 mph WSW16.7 kmh WSW 16.1 mph25.9 kmh 29.96 in1014.6 mb - 0.00 in0.0 mm 0.00 in0.0 mm
05:25 PM 64.0°F17.8°C 46.0°F7.8°C 52% 12.7 mph SW20.4 kmh SW 12.7 mph20.4 kmh 29.96 in1014.6 mb - 0.00 in0.0 mm 0.00 in0.0 mm
05:30 PM 63.9°F17.7°C 46.4°F8.0°C 53% 11.5 mph SW18.5 kmh SW 19.6 mph31.5 kmh 29.96 in1014.6 mb - 0.00 in0.0 mm 0.00 in0.0 mm
05:35 PM 63.9°F17.7°C 45.9°F7.7°C 52% 11.5 mph SW18.5 kmh SW 15.0 mph24.1 kmh 29.96 in1014.6 mb - 0.00 in0.0 mm 0.00 in0.0 mm
05:40 PM 63.7°F17.6°C 45.7°F7.6°C 52% 11.5 mph SW18.5 kmh SW 15.0 mph24.1 kmh 29.96 in1014.6 mb - 0.00 in0.0 mm 0.00 in0.0 mm
05:45 PM 63.4°F17.4°C 44.9°F7.2°C 51% 11.5 mph WSW18.5 kmh WSW 16.1 mph25.9 kmh 29.95 in1014.2 mb - 0.00 in0.0 mm 0.00 in0.0 mm
05:50 PM 63.0°F17.2°C 45.1°F7.3°C 52% 12.7 mph SW20.4 kmh SW 18.4 mph29.6 kmh 29.96 in1014.6 mb - 0.00 in0.0 mm 0.00 in0.0 mm
05:55 PM 62.8°F17.1°C 46.4°F8.0°C 55% 6.9 mph SW11.1 kmh SW 11.5 mph18.5 kmh 29.96 in1014.6 mb - 0.00 in0.0 mm 0.00 in0.0 mm
06:00 PM 62.7°F17.1°C 45.3°F7.4°C 53% 10.4 mph SW16.7 kmh SW 13.8 mph22.2 kmh 29.96 in1014.6 mb - 0.00 in0.0 mm 0.00 in0.0 mm
06:10 PM 63.0°F17.2°C 46.1°F7.8°C 54% 5.8 mph WSW9.3 kmh WSW 15.0 mph24.1 kmh 29.95 in1014.2 mb - 0.00 in0.0 mm 0.00 in0.0 mm
06:15 PM 62.2°F16.8°C 45.4°F7.4°C 54% 8.1 mph WSW13.0 kmh WSW 11.5 mph18.5 kmh 29.95 in1014.2 mb - 0.00 in0.0 mm 0.00 in0.0 mm
06:20 PM 61.5°F16.4°C 45.7°F7.6°C 56% 6.9 mph SW11.1 kmh SW 13.8 mph22.2 kmh 29.96 in1014.6 mb - 0.00 in0.0 mm 0.00 in0.0 mm
06:25 PM 61.4°F16.3°C 45.6°F7.6°C 56% 5.8 mph SW9.3 kmh SW 6.9 mph11.1 kmh 29.96 in1014.6 mb - 0.00 in0.0 mm 0.00 in0.0 mm
06:30 PM 61.1°F16.2°C 45.8°F7.7°C 57% 5.8 mph SW9.3 kmh SW 10.4 mph16.7 kmh 29.95 in1014.2 mb - 0.00 in0.0 mm 0.00 in0.0 mm
06:35 PM 61.1°F16.2°C 44.8°F7.1°C 55% 8.1 mph SW13.0 kmh SW 12.7 mph20.4 kmh 29.95 in1014.2 mb - 0.00 in0.0 mm 0.00 in0.0 mm
06:40 PM 61.5°F16.4°C 46.1°F7.8°C 57% 5.8 mph SW9.3 kmh SW 10.4 mph16.7 kmh 29.95 in1014.2 mb - 0.00 in0.0 mm 0.00 in0.0 mm
06:45 PM 61.6°F16.4°C 45.7°F7.6°C 56% 6.9 mph SW11.1 kmh SW 9.2 mph14.8 kmh 29.95 in1014.2 mb - 0.00 in0.0 mm 0.00 in0.0 mm
06:50 PM 61.4°F16.3°C 46.5°F8.1°C 58% 5.8 mph SW9.3 kmh SW 10.4 mph16.7 kmh 29.95 in1014.2 mb - 0.00 in0.0 mm 0.00 in0.0 mm
06:55 PM 60.9°F16.1°C 45.6°F7.6°C 57% 6.9 mph SW11.1 kmh SW 10.4 mph16.7 kmh 29.95 in1014.2 mb - 0.00 in0.0 mm 0.00 in0.0 mm
07:00 PM 60.4°F15.8°C 46.0°F7.8°C 59% 5.8 mph SW9.3 kmh SW 6.9 mph11.1 kmh 29.95 in1014.2 mb - 0.00 in0.0 mm 0.00 in0.0 mm
07:10 PM 60.0°F15.6°C 46.1°F7.8°C 60% 5.8 mph SW9.3 kmh SW 9.2 mph14.8 kmh 29.95 in1014.2 mb - 0.00 in0.0 mm 0.00 in0.0 mm
07:15 PM 59.7°F15.4°C 46.2°F7.9°C 61% 4.6 mph SW7.4 kmh SW 5.8 mph9.3 kmh 29.95 in1014.2 mb - 0.00 in0.0 mm 0.00 in0.0 mm
07:20 PM 59.1°F15.1°C 46.1°F7.8°C 62% 4.6 mph SW7.4 kmh SW 8.1 mph13.0 kmh 29.95 in1014.2 mb - 0.00 in0.0 mm 0.00 in0.0 mm
07:25 PM 58.9°F14.9°C 46.3°F7.9°C 63% 5.8 mph SW9.3 kmh SW 9.2 mph14.8 kmh 29.95 in1014.2 mb - 0.00 in0.0 mm 0.00 in0.0 mm
07:30 PM 58.7°F14.8°C 46.5°F8.1°C 64% 3.5 mph SW5.6 kmh SW 4.6 mph7.4 kmh 29.94 in1013.9 mb - 0.00 in0.0 mm 0.00 in0.0 mm
07:35 PM 58.2°F14.6°C 46.5°F8.1°C 65% 3.5 mph SW5.6 kmh SW 3.5 mph5.6 kmh 29.94 in1013.9 mb - 0.00 in0.0 mm 0.00 in0.0 mm
07:40 PM 57.3°F14.1°C 46.8°F8.2°C 68% 3.5 mph WSW5.6 kmh WSW 6.9 mph11.1 kmh 29.95 in1014.2 mb - 0.00 in0.0 mm 0.00 in0.0 mm
07:45 PM 57.0°F13.9°C 47.3°F8.5°C 70% 4.6 mph WSW7.4 kmh WSW 10.4 mph16.7 kmh 29.95 in1014.2 mb - 0.00 in0.0 mm 0.00 in0.0 mm
07:50 PM 56.8°F13.8°C 47.9°F8.8°C 72% 5.8 mph WSW9.3 kmh WSW 6.9 mph11.1 kmh 29.95 in1014.2 mb - 0.00 in0.0 mm 0.00 in0.0 mm
07:55 PM 56.4°F13.6°C 47.5°F8.6°C 72% 3.5 mph W5.6 kmh W 5.8 mph9.3 kmh 29.95 in1014.2 mb - 0.00 in0.0 mm 0.00 in0.0 mm
08:00 PM 56.0°F13.3°C 47.5°F8.6°C 73% 2.3 mph W3.7 kmh W 5.8 mph9.3 kmh 29.95 in1014.2 mb - 0.00 in0.0 mm 0.00 in0.0 mm
08:10 PM 55.1°F12.8°C 46.9°F8.3°C 74% 3.5 mph WSW5.6 kmh WSW 3.5 mph5.6 kmh 29.95 in1014.2 mb - 0.00 in0.0 mm 0.00 in0.0 mm
08:15 PM 54.8°F12.7°C 46.7°F8.2°C 74% 2.3 mph SW3.7 kmh SW 3.5 mph5.6 kmh 29.95 in1014.2 mb - 0.00 in0.0 mm 0.00 in0.0 mm
08:20 PM 54.5°F12.5°C 46.8°F8.2°C 75% 2.3 mph SW3.7 kmh SW 3.5 mph5.6 kmh 29.95 in1014.2 mb - 0.00 in0.0 mm 0.00 in0.0 mm
08:25 PM 54.4°F12.4°C 46.6°F8.1°C 75% 2.3 mph WSW3.7 kmh WSW 8.1 mph13.0 kmh 29.95 in1014.2 mb - 0.00 in0.0 mm 0.00 in0.0 mm
08:30 PM 54.2°F12.3°C 46.5°F8.1°C 75% 3.5 mph SW5.6 kmh SW 4.6 mph7.4 kmh 29.95 in1014.2 mb - 0.00 in0.0 mm 0.00 in0.0 mm
08:35 PM 53.9°F12.2°C 46.2°F7.9°C 75% 3.5 mph WSW5.6 kmh WSW 4.6 mph7.4 kmh 29.95 in1014.2 mb - 0.00 in0.0 mm 0.00 in0.0 mm
08:40 PM 53.6°F12.0°C 45.9°F7.7°C 75% 3.5 mph W5.6 kmh W 5.8 mph9.3 kmh 29.95 in1014.2 mb - 0.00 in0.0 mm 0.00 in0.0 mm
08:45 PM 53.2°F11.8°C 45.5°F7.5°C 75% 3.5 mph WSW5.6 kmh WSW 3.5 mph5.6 kmh 29.95 in1014.2 mb - 0.00 in0.0 mm 0.00 in0.0 mm
08:50 PM 52.9°F11.6°C 45.5°F7.5°C 76% 2.3 mph WSW3.7 kmh WSW 3.5 mph5.6 kmh 29.95 in1014.2 mb - 0.00 in0.0 mm 0.00 in0.0 mm
08:55 PM 52.6°F11.4°C 45.6°F7.6°C 77% 2.3 mph WSW3.7 kmh WSW 3.5 mph5.6 kmh 29.95 in1014.2 mb - 0.00 in0.0 mm 0.00 in0.0 mm
09:00 PM 52.5°F11.4°C 45.5°F7.5°C 77% 3.5 mph SW5.6 kmh SW 3.5 mph5.6 kmh 29.95 in1014.2 mb - 0.00 in0.0 mm 0.00 in0.0 mm
09:10 PM 52.3°F11.3°C 45.6°F7.6°C 78% 2.3 mph SW3.7 kmh SW 3.5 mph5.6 kmh 29.95 in1014.2 mb - 0.00 in0.0 mm 0.00 in0.0 mm
09:15 PM 51.8°F11.0°C 45.2°F7.3°C 78% 2.3 mph WSW3.7 kmh WSW 3.5 mph5.6 kmh 29.95 in1014.2 mb - 0.00 in0.0 mm 0.00 in0.0 mm
09:20 PM 51.5°F10.8°C 45.2°F7.3°C 79% 2.3 mph SW3.7 kmh SW 3.5 mph5.6 kmh 29.95 in1014.2 mb - 0.00 in0.0 mm 0.00 in0.0 mm
09:25 PM 51.4°F10.8°C 45.1°F7.3°C 79% 2.3 mph SW3.7 kmh SW 3.5 mph5.6 kmh 29.95 in1014.2 mb - 0.00 in0.0 mm 0.00 in0.0 mm
09:30 PM 51.4°F10.8°C 45.1°F7.3°C 79% 2.3 mph WSW3.7 kmh WSW 3.5 mph5.6 kmh 29.95 in1014.2 mb - 0.00 in0.0 mm 0.00 in0.0 mm
09:35 PM 51.5°F10.8°C 45.2°F7.3°C 79% 2.3 mph WSW3.7 kmh WSW 3.5 mph5.6 kmh 29.95 in1014.2 mb - 0.00 in0.0 mm 0.00 in0.0 mm
09:40 PM 51.3°F10.7°C 45.0°F7.2°C 79% 2.3 mph WSW3.7 kmh WSW 3.5 mph5.6 kmh 29.95 in1014.2 mb - 0.00 in0.0 mm 0.00 in0.0 mm
09:45 PM 51.1°F10.6°C 45.2°F7.3°C 80% 1.2 mph SW1.9 kmh SW 3.5 mph5.6 kmh 29.95 in1014.2 mb - 0.00 in0.0 mm 0.00 in0.0 mm
09:50 PM 50.8°F10.4°C 44.9°F7.2°C 80% 2.3 mph WSW3.7 kmh WSW 2.3 mph3.7 kmh 29.95 in1014.2 mb - 0.00 in0.0 mm 0.00 in0.0 mm
09:55 PM 50.7°F10.4°C 44.8°F7.1°C 80% 2.3 mph SW3.7 kmh SW 3.5 mph5.6 kmh 29.95 in1014.2 mb - 0.00 in0.0 mm 0.00 in0.0 mm
10:00 PM 50.6°F10.3°C 45.0°F7.2°C 81% 2.3 mph SW3.7 kmh SW 3.5 mph5.6 kmh 29.95 in1014.2 mb - 0.00 in0.0 mm 0.00 in0.0 mm
10:10 PM 50.6°F10.3°C 45.0°F7.2°C 81% 1.2 mph SW1.9 kmh SW 2.3 mph3.7 kmh 29.95 in1014.2 mb - 0.00 in0.0 mm 0.00 in0.0 mm
10:15 PM 50.3°F10.2°C 45.0°F7.2°C 82% 1.2 mph SW1.9 kmh SW 1.2 mph1.9 kmh 29.95 in1014.2 mb - 0.00 in0.0 mm 0.00 in0.0 mm
10:20 PM 50.2°F10.1°C 44.9°F7.2°C 82% 1.2 mph SW1.9 kmh SW 2.3 mph3.7 kmh 29.95 in1014.2 mb - 0.00 in0.0 mm 0.00 in0.0 mm
10:25 PM 50.1°F10.1°C 45.1°F7.3°C 83% 1.2 mph SW1.9 kmh SW 3.5 mph5.6 kmh 29.94 in1013.9 mb - 0.00 in0.0 mm 0.00 in0.0 mm
10:30 PM 49.8°F9.9°C 44.8°F7.1°C 83% 2.3 mph SW3.7 kmh SW 3.5 mph5.6 kmh 29.95 in1014.2 mb - 0.00 in0.0 mm 0.00 in0.0 mm
10:35 PM 49.0°F9.4°C 44.1°F6.7°C 83% 1.2 mph SW1.9 kmh SW 2.3 mph3.7 kmh 29.94 in1013.9 mb - 0.00 in0.0 mm 0.00 in0.0 mm
10:40 PM 48.5°F9.2°C 44.2°F6.8°C 85% 1.2 mph SW1.9 kmh SW 2.3 mph3.7 kmh 29.94 in1013.9 mb - 0.00 in0.0 mm 0.00 in0.0 mm
10:45 PM 48.8°F9.3°C 44.8°F7.1°C 86% 1.2 mph SW1.9 kmh SW 2.3 mph3.7 kmh 29.95 in1014.2 mb - 0.00 in0.0 mm 0.00 in0.0 mm
10:50 PM 49.0°F9.4°C 45.0°F7.2°C 86% 1.2 mph SW1.9 kmh SW 2.3 mph3.7 kmh 29.95 in1014.2 mb - 0.00 in0.0 mm 0.00 in0.0 mm
10:55 PM 48.9°F9.4°C 44.9°F7.2°C 86% 1.2 mph SW1.9 kmh SW 2.3 mph3.7 kmh 29.95 in1014.2 mb - 0.00 in0.0 mm 0.00 in0.0 mm
11:00 PM 48.9°F9.4°C 45.2°F7.3°C 87% 1.2 mph SW1.9 kmh SW 1.2 mph1.9 kmh 29.94 in1013.9 mb - 0.00 in0.0 mm 0.00 in0.0 mm
11:10 PM 48.3°F9.1°C 44.3°F6.8°C 86% 1.2 mph SW1.9 kmh SW 2.3 mph3.7 kmh 29.94 in1013.9 mb - 0.00 in0.0 mm 0.00 in0.0 mm
11:15 PM 48.1°F8.9°C 44.1°F6.7°C 86% 1.2 mph SW1.9 kmh SW 2.3 mph3.7 kmh 29.94 in1013.9 mb - 0.00 in0.0 mm 0.00 in0.0 mm
11:20 PM 48.1°F8.9°C 44.1°F6.7°C 86% 1.2 mph SW1.9 kmh SW 2.3 mph3.7 kmh 29.93 in1013.5 mb - 0.00 in0.0 mm 0.00 in0.0 mm
11:25 PM 48.4°F9.1°C 44.4°F6.9°C 86% 2.3 mph SW3.7 kmh SW 3.5 mph5.6 kmh 29.93 in1013.5 mb - 0.00 in0.0 mm 0.00 in0.0 mm
11:30 PM 48.4°F9.1°C 44.4°F6.9°C 86% 1.2 mph SW1.9 kmh SW 2.3 mph3.7 kmh 29.93 in1013.5 mb - 0.00 in0.0 mm 0.00 in0.0 mm
11:35 PM 48.6°F9.2°C 44.3°F6.8°C 85% 1.2 mph SW1.9 kmh SW 3.5 mph5.6 kmh 29.93 in1013.5 mb - 0.00 in0.0 mm 0.00 in0.0 mm
11:40 PM 48.2°F9.0°C 44.0°F6.7°C 85% 1.2 mph SW1.9 kmh SW 2.3 mph3.7 kmh 29.93 in1013.5 mb - 0.00 in0.0 mm 0.00 in0.0 mm
11:45 PM 47.8°F8.8°C 43.5°F6.4°C 85% 1.2 mph SW1.9 kmh SW 1.2 mph1.9 kmh 29.93 in1013.5 mb - 0.00 in0.0 mm 0.00 in0.0 mm
11:50 PM 47.3°F8.5°C 43.3°F6.3°C 86% Calm Calm -- 29.93 in1013.5 mb - 0.00 in0.0 mm 0.00 in0.0 mm
11:55 PM 47.5°F8.6°C 43.2°F6.2°C 85% 1.2 mph SW1.9 kmh SW 2.3 mph3.7 kmh 29.93 in1013.5 mb - 0.00 in0.0 mm 0.00 in0.0 mm